Merry Christmas and Happy New Year!

 

Sretan Božić i Nova godina!

 

METAR

METAR LDZA 171100Z 08009KT 030V130 9999 -RA FEW007 BKN024 17/15 Q1012 NOSIG =
METAR LDSP 171100Z 11011KT 9999 FEW028 SCT035 27/21 Q1011 NOSIG=
METAR LDDU 171100Z 14019KT 9999 FEW020 25/20 Q1015 NOSIG =
METAR LDZD 171100Z 09009KT 340V120 9999 VCTS FEW025 FEW030CB SCT044 23/17 Q1011 TEMPO TSRA =
METAR LDPL 171100Z 12005KT 9999 SCT030 BKN037 21/17 Q1011 NOSIG=
METAR LDOS 171100Z 29011KT 9999 FEW040 SCT045 24/16 Q1011=
METAR LDRI 171100Z 30007KT 9999 -RA BKN040 19/18 Q1012=
METAR LDLO 171030Z 16003KT 9999 FEW020 23/21 Q1011=

TAF

TAF COR LDZA 171008Z 1709/1806 VRB02KT 9999 SCT045
                     TX20/1712Z TN13/1804Z
        PROB40 TEMPO 1709/1721 RA
        PROB30 TEMPO 1709/1712 VRB15KT 3000 TSRA SCT010 SCT025CB BKN030
               TEMPO 1710/1716 04009KT
              PROB30 1803/1806 0200 FG VV001=         
TAF LDSP 170525Z 1706/1806 09008KT 9999 FEW040
                 TX28/1712Z TN19/1804Z
    PROB40 TEMPO 1706/1712 23015KT TSRA FEW030CB BKN040
           BECMG 1710/1712 23012KT
    PROB40 TEMPO 1712/1719 30018KT 3000 TSRA FEW020CB BKN040
           BECMG 1715/1717 VRB02KT
    PROB30 TEMPO 1802/1806 TSRA FEW030CB BKN040=         
TAF COR LDDU 171055Z 1706/1806 13012KT CAVOK
                     TX26/1712Z TN19/1804Z
        PROB30 TEMPO 1707/1710 14015G25KT
        PROB40 TEMPO 1710/1718 4000 TSRA SCT030CB BKN040
               BECMG 1711/1713 16008KT
        PROB30 TEMPO 1804/1806 TSRA FEW030CB BKN035=         
TAF AMD LDZD 170657Z 1706/1806 14006KT 9999 SCT040
                     TX25/1712Z TN16/1804Z
        PROB40 TEMPO 1708/1715 27018G30KT 3000 TSRA SCT020CB BKN030
        PROB30 TEMPO 1723/1806 24015KT TSRA FEW020CB BKN030=         
TAF AMD LDPL 170851Z 1708/1806 07007KT 9999 SCT040
                     TX22/1711Z TN16/1800Z
        PROB40 TEMPO 1708/1723 RA
        PROB30 TEMPO 1710/1721 24015G30KT 2000 +TSRA BKN010 SCT020CB OVC030
              PROB40 1711/1720 28008KT
        PROB40 TEMPO 1721/1806 07018KT=         
TAF LDOS 170525Z 1706/1806 23006KT 9999 SCT045
                 TX21/1711Z TN15/1803Z
           BECMG 1707/1709 32010KT
    PROB40 TEMPO 1709/1714 TSRA FEW030CB BKN040
    PROB30 TEMPO 1718/1801 RA BKN014=         
TAF LDRI 170525Z 1706/1806 14008KT 9999 SCT040
                 TX22/1711Z TN16/1800Z
           TEMPO 1706/1723 16015KT 4000 TSRA FEW030CB BKN040
    PROB30 TEMPO 1706/1713 1500 +TSRA BKN010 SCT020CB OVC030
           BECMG 1800/1802 04010KT=         
TAF LDSB NIL=         
TAF AMD LDLO 170840Z 1708/1806 04008KT 9999 SCT040
                     TX22/1708Z TN17/1803Z
        PROB40 TEMPO 1708/1801 24015KT TSRA FEW025CB BKN035
        PROB30 TEMPO 1801/1806 02015KT=

SIGMET

AIRMET

If you cannot log in with your user account, please contact stjepko.jancijev@crocontrol.hr.
Specifically, the website deactivates user accounts that have not been used for more than 365 days, so they must be reactivated.
 

         

      Politika MET podataka      

 

Ukoliko se svojim korisničkim računom ne možete logirati na web stranicu, molim vas da se obratite na stjepko.jancijev@crocontrol.hr.

Naime, web stranica deaktivira korisničke račune koji nisu korišteni više od 365 dana te ih je potrebno ponovno aktivirati.